27PA weather

Fort Lee Heliport
Nicktown, Pennsylvania, United States

Public forecast

Using degrees Fahrenheit for public forecast. Weather courtesy of forecast.io.

METAR (pilot weather report)

Closest report is Indiana County/Jimmy Stewart Fld/ Airport, 12.7 nm (23.6 km) W. Retrieved 2019/05/24 06:35 UTC (0 seconds ago):

KIDI 240635Z AUTO VRB04KT 10SM SCT042 SCT048 17/11 A3006 RMK A01

TAF (pilot weather forecast)

Closest forecast is John Murtha Johnstown Cambria County Airport, 20.1 nm (37.3 km) S. Retrieved 2019/05/24 06:48 UTC (0 seconds ago):

TAF KJST 240546Z 2406/2506 30016G21KT P6SM SCT014 SCT030 BKN040 FM241100 30010KT P6SM OVC025 FM241400 30012G20KT P6SM SCT050 FM242300 31007KT P6SM FEW250